Aérodrome :
LOGIN :

S'inscrire | Disclaimer

   EN    FR    IT 

 










Légende :    VFR   VFR Marginal   IFR   IFR Intensif   IFR Très Intensif
Visi : 
Plafond : 
>= 8 km
>= 3000ft
5 à 8 km
1000 à 3000 ft
1500m à 5 km
500 à 1000 ft
800 à 1500m
200 à 500 ft
< 800m
< 200 ft
Symboles :   Orages  Brouillard  Fortes neiges  Fortes précipitations  Vent > 20 kt
SIGMETs :   Divers  Orages  Givrage  Turbulence  Onde Orograph.  Cendres Volcan.






- Altitude de l'aérodrome : 1299 ft


EDTY - Adolf Würth

DERNIER METAR :
  • 181920Z AUTO 26005KT 9999 // FEW012/// SCT052/// 02/00 Q1027

METARs EXPIRÉS :
  • 181850Z AUTO 25004KT 210V290 9999 // FEW021/// BKN056/// 02/01 Q1027
  • 181820Z AUTO 24005KT 9999 // FEW010/// OVC057/// 02/01 Q1027
  • 181750Z AUTO 24005KT 9999 // SCT010/// OVC059/// 02/01 Q1027
  • 181720Z AUTO 24006KT 9999 // FEW015/// BKN022/// BKN062/// 02/01 Q1026
  • 181650Z AUTO 24005KT 200V270 9999 // FEW019/// BKN024/// OVC051/// 02/01 Q1026

TAF TAF EDTY
Valide du 18 à 15h jusqu'au 19 à 00h UTC


181400Z 1815/1824 24006KT 9999 SCT015 BKN030
PROB30
TEMPO 1815/1820 2000 -SHSNRA BKN012TCU
PROB30
TEMPO 1820/1824 1200 -SHSN BKN006TCU



MET'MAP, la Météo Aéronautique d'un coup d'oeil ! - Copyright ORBIFLY Décembre 2007 - Disclaimer

ORBIFLY MET'MAP TEAM :

Programmation & Développement : Alexandra Zaïnal
Sur une idée originale de : Baudouin d'Aumeries
Assistance à la programmation : Marc-Olivier Méhu
Soutien technique & logistique : Manuel Goepfert

Contact : metmap@orbifly.com




SOURCES & CREDITS :

   NOAA